Jachal, Argentina
Current Conditions -  °F | °C
As of 5:00 AM on Friday 24 Oct 2014 (Local Time) from SCSE Reporting Station
Overcast Overcast  
Wind Chill: 55°   Ceiling: 800
Heat Index: 55°   Visibility: 6mi
Dew Point: 54°   Wind: 3mph
Humidity: 94%   Direction: 320°NW
Pressure: 29.94"   Gusts: NA
Location:  30.25°S, 68.75°W
Report Text: SCSE 240800Z 32003KT 9999 OVC008 13/12 Q1014
Loading
Personal Weather Stations






























Interactive Weather Map New forecast layout! Learn more

10-Day Weather Forecast

Advertisements
Track Severe Weather on mobile